createdAt,value
2022-09-22T00:01:39.000Z,99456
2022-09-22T00:03:05.000Z,99455
2022-09-22T00:05:11.000Z,99455
2022-09-22T00:06:38.000Z,99457
2022-09-22T00:08:44.000Z,99459
2022-09-22T00:10:10.000Z,99456
2022-09-22T00:12:17.000Z,99456
2022-09-22T00:13:43.000Z,99457
2022-09-22T00:15:49.000Z,99456
2022-09-22T00:17:16.000Z,99455
2022-09-22T00:19:22.000Z,99456
2022-09-22T00:20:48.000Z,99459
2022-09-22T00:22:55.000Z,99459
2022-09-22T00:25:46.000Z,99456
2022-09-22T00:27:12.000Z,99459
2022-09-22T00:29:18.000Z,99456
2022-09-22T00:30:45.000Z,99453
2022-09-22T00:32:51.000Z,99450
2022-09-22T00:34:17.000Z,99454
2022-09-22T00:36:24.000Z,99450
2022-09-22T00:37:50.000Z,99452
2022-09-22T00:39:56.000Z,99449
2022-09-22T00:41:23.000Z,99452
2022-09-22T00:43:29.000Z,99450
2022-09-22T00:44:55.000Z,99450
2022-09-22T00:47:01.000Z,99450
2022-09-22T00:48:28.000Z,99448
2022-09-22T00:50:34.000Z,99450
2022-09-22T00:52:01.000Z,99451
2022-09-22T00:54:07.000Z,99446
2022-09-22T00:55:33.000Z,99445
2022-09-22T00:57:40.000Z,99448
2022-09-22T00:59:06.000Z,99447
2022-09-22T01:01:12.000Z,99444
2022-09-22T01:04:03.000Z,99445
2022-09-22T01:05:30.000Z,99444
2022-09-22T01:07:36.000Z,99442
2022-09-22T01:09:02.000Z,99444
2022-09-22T01:11:08.000Z,99441
2022-09-22T01:12:35.000Z,99440
2022-09-22T01:14:41.000Z,99432
2022-09-22T01:16:08.000Z,99430
2022-09-22T01:18:14.000Z,99430
2022-09-22T01:19:40.000Z,99432
2022-09-22T01:21:46.000Z,99428
2022-09-22T01:23:13.000Z,99427
2022-09-22T01:25:19.000Z,99425
2022-09-22T01:26:46.000Z,99426
2022-09-22T01:28:52.000Z,99421
2022-09-22T01:30:18.000Z,99422
2022-09-22T01:32:24.000Z,99423
2022-09-22T01:33:51.000Z,99421
2022-09-22T01:35:57.000Z,99421
2022-09-22T01:37:23.000Z,99420
2022-09-22T01:39:29.000Z,99419
2022-09-22T01:42:21.000Z,99422
2022-09-22T01:43:47.000Z,99420
2022-09-22T01:45:53.000Z,99420
2022-09-22T01:47:20.000Z,99421
2022-09-22T01:49:26.000Z,99422
2022-09-22T01:50:52.000Z,99423
2022-09-22T01:52:58.000Z,99420
2022-09-22T01:54:25.000Z,99418
2022-09-22T01:56:31.000Z,99416
2022-09-22T01:57:58.000Z,99415
2022-09-22T02:00:04.000Z,99419
2022-09-22T02:01:30.000Z,99414
2022-09-22T02:03:36.000Z,99416
2022-09-22T02:05:03.000Z,99421
2022-09-22T02:07:09.000Z,99418
2022-09-22T02:08:35.000Z,99418
2022-09-22T02:10:42.000Z,99417
2022-09-22T02:12:08.000Z,99416
2022-09-22T02:14:14.000Z,99415
2022-09-22T02:15:41.000Z,99415
2022-09-22T02:17:47.000Z,99415
2022-09-22T02:20:38.000Z,99412
2022-09-22T02:22:05.000Z,99416
2022-09-22T02:24:11.000Z,99415
2022-09-22T02:25:37.000Z,99414
2022-09-22T02:27:43.000Z,99410
2022-09-22T02:29:10.000Z,99409
2022-09-22T02:31:16.000Z,99409
2022-09-22T02:32:47.000Z,99408
2022-09-22T02:34:53.000Z,99409
2022-09-22T02:36:19.000Z,99409
2022-09-22T02:38:25.000Z,99408
2022-09-22T02:39:52.000Z,99410
2022-09-22T02:41:58.000Z,99407
2022-09-22T02:43:24.000Z,99405
2022-09-22T02:45:30.000Z,99406
2022-09-22T02:46:57.000Z,99398
2022-09-22T02:49:03.000Z,99396
2022-09-22T02:50:30.000Z,99395
2022-09-22T02:52:36.000Z,99396
2022-09-22T02:54:02.000Z,99396
2022-09-22T02:56:08.000Z,99394
2022-09-22T02:59:00.000Z,99391
2022-09-22T03:00:26.000Z,99389
2022-09-22T03:02:32.000Z,99390
2022-09-22T03:03:59.000Z,99387
2022-09-22T03:06:05.000Z,99393
2022-09-22T03:07:31.000Z,99393
2022-09-22T03:09:37.000Z,99391
2022-09-22T03:11:04.000Z,99393
2022-09-22T03:13:10.000Z,99393
2022-09-22T03:14:44.000Z,99390
2022-09-22T03:16:50.000Z,99388
2022-09-22T03:18:16.000Z,99386
2022-09-22T03:20:22.000Z,99385
2022-09-22T03:21:49.000Z,99387
2022-09-22T03:23:55.000Z,99387
2022-09-22T03:25:21.000Z,99388
2022-09-22T03:27:27.000Z,99383
2022-09-22T03:28:54.000Z,99382
2022-09-22T03:31:00.000Z,99379
2022-09-22T03:32:27.000Z,99380
2022-09-22T03:34:33.000Z,99378
2022-09-22T03:37:24.000Z,99377
2022-09-22T03:38:51.000Z,99376
2022-09-22T03:40:57.000Z,99376
2022-09-22T03:42:23.000Z,99378
2022-09-22T03:44:29.000Z,99378
2022-09-22T03:45:56.000Z,99379
2022-09-22T03:48:02.000Z,99375
2022-09-22T03:49:29.000Z,99376
2022-09-22T03:51:35.000Z,99376
2022-09-22T03:53:01.000Z,99378
2022-09-22T03:55:08.000Z,99376
2022-09-22T03:56:34.000Z,99372
2022-09-22T03:58:40.000Z,99375
2022-09-22T04:00:07.000Z,99372
2022-09-22T04:02:13.000Z,99367
2022-09-22T04:03:40.000Z,99369
2022-09-22T04:05:46.000Z,99370
2022-09-22T04:07:13.000Z,99372
2022-09-22T04:09:19.000Z,99368
2022-09-22T04:10:45.000Z,99368
2022-09-22T04:12:51.000Z,99367
2022-09-22T04:15:42.000Z,99364
2022-09-22T04:17:09.000Z,99363
2022-09-22T04:19:15.000Z,99365
2022-09-22T04:20:42.000Z,99364
2022-09-22T04:22:48.000Z,99363
2022-09-22T04:24:14.000Z,99365
2022-09-22T04:26:20.000Z,99362
2022-09-22T04:27:47.000Z,99364
2022-09-22T04:29:53.000Z,99360
2022-09-22T04:31:19.000Z,99359
2022-09-22T04:33:25.000Z,99365
2022-09-22T04:34:52.000Z,99364
2022-09-22T04:36:58.000Z,99362
2022-09-22T04:38:25.000Z,99366
2022-09-22T04:40:31.000Z,99367
2022-09-22T04:41:57.000Z,99364
2022-09-22T04:44:03.000Z,99365
2022-09-22T04:45:30.000Z,99366
2022-09-22T04:47:36.000Z,99368
2022-09-22T04:49:03.000Z,99367
2022-09-22T04:51:09.000Z,99362
2022-09-22T04:54:00.000Z,99359
2022-09-22T04:55:26.000Z,99363
2022-09-22T04:57:33.000Z,99364
2022-09-22T04:58:59.000Z,99361
2022-09-22T05:01:05.000Z,99364
2022-09-22T05:02:32.000Z,99364
2022-09-22T05:04:38.000Z,99361
2022-09-22T05:06:04.000Z,99363
2022-09-22T05:08:11.000Z,99363
2022-09-22T05:09:37.000Z,99364
2022-09-22T05:11:43.000Z,99365
2022-09-22T05:13:10.000Z,99365
2022-09-22T05:15:16.000Z,99369
2022-09-22T05:16:42.000Z,99368
2022-09-22T05:18:48.000Z,99364
2022-09-22T05:20:15.000Z,99370
2022-09-22T05:22:21.000Z,99367
2022-09-22T05:23:48.000Z,99372
2022-09-22T05:25:54.000Z,99371
2022-09-22T05:27:20.000Z,99372
2022-09-22T05:29:26.000Z,99372
2022-09-22T05:32:19.000Z,99373
2022-09-22T05:33:45.000Z,99372
2022-09-22T05:35:52.000Z,99372
2022-09-22T05:37:18.000Z,99374
2022-09-22T05:39:24.000Z,99375
2022-09-22T05:40:51.000Z,99374
2022-09-22T05:42:57.000Z,99373
2022-09-22T05:44:23.000Z,99373
2022-09-22T05:46:29.000Z,99377
2022-09-22T05:47:56.000Z,99374
2022-09-22T05:50:02.000Z,99378
2022-09-22T05:51:28.000Z,99380
2022-09-22T05:53:35.000Z,99377
2022-09-22T05:55:01.000Z,99377
2022-09-22T05:57:07.000Z,99375
2022-09-22T05:58:34.000Z,99382
2022-09-22T06:00:40.000Z,99379
2022-09-22T06:02:07.000Z,99380
2022-09-22T06:04:31.000Z,99383
2022-09-22T06:05:57.000Z,99382
2022-09-22T06:08:04.000Z,99385
2022-09-22T06:10:55.000Z,99389
2022-09-22T06:12:21.000Z,99385
2022-09-22T06:14:27.000Z,99386
2022-09-22T06:15:54.000Z,99389
2022-09-22T06:18:00.000Z,99386
2022-09-22T06:19:26.000Z,99385
2022-09-22T06:21:32.000Z,99384
2022-09-22T06:22:59.000Z,99383
2022-09-22T06:25:05.000Z,99382
2022-09-22T06:26:32.000Z,99381
2022-09-22T06:28:38.000Z,99381
2022-09-22T06:30:04.000Z,99381
2022-09-22T06:32:10.000Z,99378
2022-09-22T06:33:37.000Z,99379
2022-09-22T06:35:43.000Z,99373
2022-09-22T06:37:09.000Z,99375
2022-09-22T06:39:16.000Z,99379
2022-09-22T06:40:42.000Z,99376
2022-09-22T06:42:48.000Z,99377
2022-09-22T06:44:15.000Z,99374
2022-09-22T06:46:21.000Z,99375
2022-09-22T06:49:12.000Z,99376
2022-09-22T06:50:39.000Z,99377
2022-09-22T06:52:45.000Z,99378
2022-09-22T06:54:11.000Z,99380
2022-09-22T06:56:17.000Z,99378
2022-09-22T06:57:44.000Z,99379
2022-09-22T06:59:50.000Z,99378
2022-09-22T07:01:17.000Z,99377
2022-09-22T07:03:23.000Z,99374
2022-09-22T07:04:49.000Z,99374
2022-09-22T07:06:56.000Z,99373
2022-09-22T07:08:22.000Z,99375
2022-09-22T07:10:28.000Z,99375
2022-09-22T07:11:55.000Z,99371
2022-09-22T07:14:01.000Z,99377
2022-09-22T07:15:27.000Z,99375
2022-09-22T07:17:33.000Z,99375
2022-09-22T07:19:00.000Z,99376
2022-09-22T07:21:06.000Z,99378
2022-09-22T07:22:32.000Z,99377
2022-09-22T07:24:39.000Z,99376
2022-09-22T07:27:30.000Z,99377
2022-09-22T07:28:56.000Z,99375
2022-09-22T07:31:02.000Z,99377
2022-09-22T07:32:29.000Z,99379
2022-09-22T07:34:35.000Z,99381
2022-09-22T07:36:02.000Z,99379
2022-09-22T07:38:08.000Z,99378
2022-09-22T07:39:34.000Z,99376
2022-09-22T07:41:40.000Z,99377
2022-09-22T07:43:07.000Z,99378
2022-09-22T07:45:13.000Z,99375
2022-09-22T07:46:40.000Z,99375
2022-09-22T07:48:46.000Z,99376
2022-09-22T07:50:12.000Z,99376
2022-09-22T07:52:19.000Z,99374
2022-09-22T07:53:45.000Z,99376
2022-09-22T07:55:51.000Z,99370
2022-09-22T07:57:18.000Z,99374
2022-09-22T07:59:24.000Z,99372
2022-09-22T08:00:50.000Z,99372
2022-09-22T08:02:57.000Z,99371
2022-09-22T08:05:48.000Z,99367
2022-09-22T08:07:14.000Z,99365
2022-09-22T08:09:20.000Z,99371
2022-09-22T08:10:47.000Z,99371
2022-09-22T08:12:53.000Z,99368
2022-09-22T08:14:20.000Z,99370
2022-09-22T08:16:26.000Z,99372
2022-09-22T08:17:52.000Z,99367
2022-09-22T08:19:58.000Z,99365
2022-09-22T08:21:25.000Z,99364
2022-09-22T08:23:31.000Z,99362
2022-09-22T08:24:57.000Z,99360
2022-09-22T08:27:04.000Z,99362
2022-09-22T08:28:30.000Z,99358
2022-09-22T08:30:36.000Z,99363
2022-09-22T08:32:03.000Z,99363
2022-09-22T08:34:09.000Z,99365
2022-09-22T08:35:35.000Z,99364
2022-09-22T08:37:41.000Z,99364
2022-09-22T08:39:08.000Z,99364
2022-09-22T08:41:14.000Z,99364
2022-09-22T08:44:05.000Z,99359
2022-09-22T08:45:32.000Z,99362
2022-09-22T08:47:38.000Z,99361
2022-09-22T08:49:04.000Z,99358
2022-09-22T08:51:10.000Z,99358
2022-09-22T08:52:37.000Z,99362
2022-09-22T08:54:43.000Z,99363
2022-09-22T08:56:09.000Z,99362
2022-09-22T08:58:16.000Z,99364
2022-09-22T08:59:42.000Z,99360
2022-09-22T09:01:48.000Z,99357
2022-09-22T09:03:15.000Z,99360
2022-09-22T09:05:21.000Z,99360
2022-09-22T09:06:48.000Z,99357
2022-09-22T09:08:54.000Z,99356
2022-09-22T09:10:20.000Z,99356
2022-09-22T09:12:26.000Z,99354
2022-09-22T09:13:53.000Z,99351
2022-09-22T09:15:59.000Z,99347
2022-09-22T09:17:26.000Z,99346
2022-09-22T09:19:32.000Z,99346
2022-09-22T09:22:23.000Z,99347
2022-09-22T09:26:25.000Z,99346
2022-09-22T09:27:52.000Z,99345
2022-09-22T09:29:58.000Z,99343
2022-09-22T09:31:24.000Z,99347
2022-09-22T09:33:31.000Z,99342
2022-09-22T09:34:57.000Z,99343
2022-09-22T09:37:03.000Z,99342
2022-09-22T09:38:30.000Z,99341
2022-09-22T09:40:36.000Z,99339
2022-09-22T09:42:03.000Z,99337
2022-09-22T09:44:09.000Z,99337
2022-09-22T09:45:35.000Z,99335
2022-09-22T09:47:41.000Z,99333
2022-09-22T09:49:08.000Z,99332
2022-09-22T09:51:14.000Z,99329
2022-09-22T09:52:40.000Z,99330
2022-09-22T09:54:46.000Z,99328
2022-09-22T09:56:13.000Z,99327
2022-09-22T09:58:19.000Z,99327
2022-09-22T10:01:10.000Z,99325
2022-09-22T10:02:37.000Z,99322
2022-09-22T10:04:43.000Z,99325
2022-09-22T10:06:10.000Z,99320
2022-09-22T10:08:16.000Z,99319
2022-09-22T10:09:42.000Z,99318
2022-09-22T10:11:48.000Z,99321
2022-09-22T10:13:15.000Z,99318
2022-09-22T10:15:24.000Z,99322
2022-09-22T10:16:50.000Z,99320
2022-09-22T10:18:56.000Z,99316
2022-09-22T10:20:23.000Z,99318
2022-09-22T10:22:29.000Z,99315
2022-09-22T10:23:56.000Z,99313
2022-09-22T10:26:02.000Z,99309
2022-09-22T10:27:28.000Z,99309
2022-09-22T10:29:34.000Z,99308
2022-09-22T10:31:01.000Z,99307
2022-09-22T10:33:07.000Z,99305
2022-09-22T10:34:34.000Z,99306
2022-09-22T10:36:40.000Z,99307
2022-09-22T10:39:31.000Z,99305
2022-09-22T10:40:58.000Z,99304
2022-09-22T10:43:04.000Z,99304
2022-09-22T10:44:30.000Z,99300
2022-09-22T10:46:48.000Z,99295
2022-09-22T10:48:15.000Z,99298
2022-09-22T10:50:21.000Z,99293
2022-09-22T10:51:48.000Z,99292
2022-09-22T10:53:54.000Z,99291
2022-09-22T10:55:20.000Z,99285
2022-09-22T10:57:26.000Z,99286
2022-09-22T10:58:53.000Z,99287
2022-09-22T11:00:59.000Z,99288
2022-09-22T11:02:25.000Z,99289
2022-09-22T11:04:31.000Z,99288
2022-09-22T11:05:58.000Z,99285
2022-09-22T11:08:04.000Z,99283
2022-09-22T11:09:31.000Z,99282
2022-09-22T11:11:37.000Z,99282
2022-09-22T11:13:06.000Z,99279
2022-09-22T11:15:12.000Z,99274
2022-09-22T11:18:03.000Z,99271
2022-09-22T11:19:30.000Z,99265
2022-09-22T11:21:36.000Z,99259
2022-09-22T11:23:02.000Z,99259
2022-09-22T11:25:08.000Z,99258
2022-09-22T11:26:35.000Z,99256
2022-09-22T11:28:41.000Z,99256
2022-09-22T11:30:08.000Z,99254
2022-09-22T11:32:17.000Z,99249
2022-09-22T11:33:43.000Z,99248
2022-09-22T11:35:50.000Z,99248
2022-09-22T11:37:16.000Z,99246
2022-09-22T11:39:22.000Z,99242
2022-09-22T11:40:49.000Z,99242
2022-09-22T11:42:55.000Z,99235
2022-09-22T11:44:24.000Z,99236
2022-09-22T11:46:30.000Z,99234
2022-09-22T11:47:57.000Z,99236
2022-09-22T11:50:03.000Z,99230
2022-09-22T11:51:30.000Z,99231
2022-09-22T11:53:36.000Z,99229
2022-09-22T11:56:27.000Z,99230
2022-09-22T11:57:53.000Z,99227
2022-09-22T12:00:00.000Z,99227
2022-09-22T12:01:26.000Z,99221
2022-09-22T12:03:32.000Z,99220
2022-09-22T12:04:59.000Z,99214
2022-09-22T12:07:05.000Z,99216
2022-09-22T12:08:32.000Z,99216
2022-09-22T12:10:38.000Z,99210
2022-09-22T12:12:04.000Z,99212
2022-09-22T12:14:11.000Z,99212
2022-09-22T12:15:37.000Z,99208
2022-09-22T12:17:43.000Z,99206
2022-09-22T12:19:10.000Z,99203
2022-09-22T12:21:16.000Z,99203
2022-09-22T12:22:42.000Z,99201
2022-09-22T12:24:49.000Z,99197
2022-09-22T12:26:15.000Z,99202
2022-09-22T12:28:21.000Z,99199
2022-09-22T12:29:48.000Z,99201
2022-09-22T12:31:54.000Z,99197
2022-09-22T12:34:45.000Z,99200
2022-09-22T12:36:11.000Z,99196
2022-09-22T12:38:18.000Z,99193
2022-09-22T12:39:44.000Z,99191
2022-09-22T12:41:50.000Z,99192
2022-09-22T12:43:17.000Z,99188
2022-09-22T12:45:23.000Z,99187
2022-09-22T12:46:49.000Z,99186
2022-09-22T12:48:55.000Z,99185
2022-09-22T12:50:22.000Z,99185
2022-09-22T12:52:28.000Z,99185
2022-09-22T12:53:54.000Z,99184
2022-09-22T12:56:01.000Z,99182
2022-09-22T12:57:27.000Z,99179
2022-09-22T12:59:33.000Z,99178
2022-09-22T13:01:00.000Z,99178
2022-09-22T13:03:06.000Z,99175
2022-09-22T13:04:32.000Z,99172
2022-09-22T13:06:39.000Z,99172
2022-09-22T13:08:05.000Z,99175
2022-09-22T13:10:11.000Z,99170
2022-09-22T13:13:02.000Z,99171
2022-09-22T13:14:29.000Z,99170
2022-09-22T13:16:35.000Z,99166
2022-09-22T13:18:02.000Z,99165
2022-09-22T13:20:08.000Z,99164
2022-09-22T13:21:34.000Z,99162
2022-09-22T13:23:40.000Z,99161
2022-09-22T13:25:07.000Z,99159
2022-09-22T13:27:13.000Z,99156
2022-09-22T13:28:39.000Z,99154
2022-09-22T13:30:46.000Z,99153
2022-09-22T13:32:12.000Z,99154
2022-09-22T13:34:24.000Z,99159
2022-09-22T13:35:50.000Z,99156
2022-09-22T13:37:56.000Z,99157
2022-09-22T13:39:23.000Z,99159
2022-09-22T13:41:29.000Z,99154
2022-09-22T13:42:55.000Z,99158
2022-09-22T13:45:02.000Z,99152
2022-09-22T13:46:28.000Z,99150
2022-09-22T13:48:34.000Z,99149
2022-09-22T13:51:25.000Z,99151
2022-09-22T13:52:52.000Z,99151
2022-09-22T13:54:58.000Z,99146
2022-09-22T13:56:24.000Z,99145
2022-09-22T13:58:31.000Z,99144
2022-09-22T13:59:57.000Z,99138
2022-09-22T14:02:03.000Z,99139
2022-09-22T14:03:30.000Z,99139
2022-09-22T14:05:36.000Z,99132
2022-09-22T14:07:03.000Z,99132
2022-09-22T14:09:09.000Z,99129
2022-09-22T14:10:35.000Z,99124
2022-09-22T14:12:41.000Z,99124
2022-09-22T14:14:08.000Z,99124
2022-09-22T14:16:14.000Z,99120
2022-09-22T14:17:40.000Z,99122
2022-09-22T14:19:46.000Z,99119
2022-09-22T14:21:13.000Z,99121
2022-09-22T14:23:19.000Z,99118
2022-09-22T14:24:46.000Z,99115
2022-09-22T14:26:52.000Z,99114
2022-09-22T14:29:43.000Z,99111
2022-09-22T14:31:10.000Z,99108
2022-09-22T14:33:16.000Z,99109
2022-09-22T14:34:42.000Z,99105
2022-09-22T14:36:48.000Z,99103
2022-09-22T14:38:15.000Z,99105
2022-09-22T14:40:25.000Z,99101
2022-09-22T14:41:51.000Z,99101
2022-09-22T14:43:57.000Z,99102
2022-09-22T14:45:24.000Z,99100
2022-09-22T14:47:30.000Z,99098
2022-09-22T14:48:56.000Z,99095
2022-09-22T14:51:03.000Z,99090
2022-09-22T14:52:29.000Z,99090
2022-09-22T14:54:35.000Z,99090
2022-09-22T14:56:02.000Z,99091
2022-09-22T14:58:08.000Z,99089
2022-09-22T14:59:34.000Z,99088
2022-09-22T15:01:40.000Z,99081
2022-09-22T15:03:07.000Z,99083
2022-09-22T15:05:13.000Z,99080
2022-09-22T15:08:04.000Z,99074
2022-09-22T15:09:31.000Z,99072
2022-09-22T15:11:37.000Z,99070
2022-09-22T15:13:03.000Z,99065
2022-09-22T15:15:09.000Z,99071
2022-09-22T15:16:36.000Z,99068
2022-09-22T15:18:42.000Z,99067
2022-09-22T15:20:09.000Z,99069
2022-09-22T15:22:15.000Z,99067
2022-09-22T15:23:41.000Z,99069
2022-09-22T15:25:48.000Z,99071
2022-09-22T15:27:14.000Z,99063
2022-09-22T15:29:20.000Z,99064
2022-09-22T15:30:47.000Z,99063
2022-09-22T15:32:53.000Z,99065
2022-09-22T15:34:20.000Z,99066
2022-09-22T15:36:26.000Z,99067
2022-09-22T15:37:52.000Z,99067
2022-09-22T15:39:58.000Z,99068
2022-09-22T15:41:25.000Z,99066
2022-09-22T15:43:31.000Z,99066
2022-09-22T15:46:22.000Z,99067
2022-09-22T15:47:49.000Z,99068
2022-09-22T15:49:55.000Z,99064
2022-09-22T15:51:21.000Z,99062
2022-09-22T15:53:27.000Z,99061
2022-09-22T15:54:54.000Z,99062
2022-09-22T15:57:00.000Z,99059
2022-09-22T15:58:26.000Z,99058
2022-09-22T16:00:32.000Z,99055
2022-09-22T16:01:59.000Z,99054
2022-09-22T16:04:05.000Z,99056
2022-09-22T16:05:32.000Z,99055
2022-09-22T16:07:38.000Z,99053
2022-09-22T16:09:04.000Z,99053
2022-09-22T16:11:11.000Z,99050
2022-09-22T16:12:37.000Z,99048
2022-09-22T16:14:43.000Z,99051
2022-09-22T16:16:10.000Z,99050
2022-09-22T16:18:16.000Z,99048
2022-09-22T16:19:43.000Z,99049
2022-09-22T16:21:49.000Z,99049
2022-09-22T16:24:40.000Z,99048
2022-09-22T16:26:06.000Z,99046
2022-09-22T16:28:12.000Z,99049
2022-09-22T16:29:39.000Z,99051
2022-09-22T16:31:45.000Z,99047
2022-09-22T16:33:12.000Z,99048
2022-09-22T16:35:18.000Z,99051
2022-09-22T16:36:44.000Z,99044
2022-09-22T16:38:51.000Z,99045
2022-09-22T16:40:17.000Z,99049
2022-09-22T16:42:23.000Z,99040
2022-09-22T16:43:50.000Z,99042
2022-09-22T16:45:56.000Z,99039
2022-09-22T16:47:23.000Z,99037
2022-09-22T16:49:29.000Z,99034
2022-09-22T16:50:55.000Z,99036
2022-09-22T16:53:01.000Z,99034
2022-09-22T16:54:28.000Z,99038
2022-09-22T16:56:34.000Z,99037
2022-09-22T16:58:01.000Z,99032
2022-09-22T17:00:07.000Z,99038
2022-09-22T17:02:58.000Z,99035
2022-09-22T17:04:24.000Z,99031
2022-09-22T17:06:30.000Z,99033
2022-09-22T17:07:57.000Z,99033
2022-09-22T17:10:03.000Z,99035
2022-09-22T17:11:30.000Z,99034
2022-09-22T17:13:36.000Z,99033
2022-09-22T17:15:02.000Z,99033
2022-09-22T17:17:08.000Z,99030
2022-09-22T17:18:35.000Z,99029
2022-09-22T17:20:41.000Z,99025
2022-09-22T17:22:08.000Z,99025
2022-09-22T17:24:14.000Z,99023
2022-09-22T17:25:40.000Z,99021
2022-09-22T17:27:46.000Z,99021
2022-09-22T17:29:13.000Z,99020
2022-09-22T17:31:19.000Z,99024
2022-09-22T17:32:45.000Z,99021
2022-09-22T17:34:51.000Z,99025
2022-09-22T17:36:18.000Z,99024
2022-09-22T17:38:24.000Z,99023
2022-09-22T17:41:15.000Z,99022
2022-09-22T17:42:41.000Z,99022
2022-09-22T17:44:48.000Z,99025
2022-09-22T17:46:14.000Z,99027
2022-09-22T17:48:20.000Z,99031
2022-09-22T17:49:47.000Z,99034
2022-09-22T17:51:53.000Z,99040
2022-09-22T17:53:19.000Z,99039
2022-09-22T17:55:25.000Z,99040
2022-09-22T17:56:52.000Z,99043
2022-09-22T17:58:58.000Z,99045
2022-09-22T18:00:25.000Z,99048
2022-09-22T18:02:31.000Z,99042
2022-09-22T18:03:57.000Z,99042
2022-09-22T18:06:03.000Z,99042
2022-09-22T18:07:30.000Z,99045
2022-09-22T18:09:36.000Z,99045
2022-09-22T18:11:02.000Z,99045
2022-09-22T18:13:08.000Z,99046
2022-09-22T18:14:35.000Z,99053
2022-09-22T18:16:41.000Z,99052
2022-09-22T18:19:32.000Z,99051
2022-09-22T18:20:58.000Z,99053
2022-09-22T18:23:05.000Z,99053
2022-09-22T18:24:31.000Z,99054
2022-09-22T18:26:37.000Z,99056
2022-09-22T18:28:04.000Z,99054
2022-09-22T18:30:10.000Z,99053
2022-09-22T18:31:42.000Z,99058
2022-09-22T18:33:48.000Z,99061
2022-09-22T18:35:14.000Z,99060
2022-09-22T18:37:20.000Z,99061
2022-09-22T18:38:47.000Z,99060
2022-09-22T18:40:53.000Z,99063
2022-09-22T18:42:20.000Z,99065
2022-09-22T18:44:26.000Z,99067
2022-09-22T18:45:52.000Z,99068
2022-09-22T18:47:58.000Z,99067
2022-09-22T18:49:25.000Z,99070
2022-09-22T18:51:31.000Z,99073
2022-09-22T18:52:57.000Z,99074
2022-09-22T18:55:03.000Z,99070
2022-09-22T18:57:55.000Z,99071
2022-09-22T18:59:21.000Z,99067
2022-09-22T19:01:27.000Z,99071
2022-09-22T19:02:54.000Z,99069
2022-09-22T19:05:00.000Z,99073
2022-09-22T19:06:27.000Z,99073
2022-09-22T19:08:33.000Z,99071
2022-09-22T19:10:00.000Z,99073
2022-09-22T19:12:06.000Z,99077
2022-09-22T19:13:32.000Z,99074
2022-09-22T19:15:38.000Z,99075
2022-09-22T19:17:05.000Z,99078
2022-09-22T19:20:37.000Z,99079
2022-09-22T19:22:43.000Z,99076
2022-09-22T19:24:10.000Z,99080
2022-09-22T19:26:16.000Z,99073
2022-09-22T19:27:43.000Z,99077
2022-09-22T19:29:49.000Z,99076
2022-09-22T19:31:15.000Z,99079
2022-09-22T19:33:22.000Z,99076
2022-09-22T19:36:13.000Z,99077
2022-09-22T19:37:39.000Z,99078
2022-09-22T19:39:45.000Z,99075
2022-09-22T19:41:12.000Z,99074
2022-09-22T19:43:18.000Z,99070
2022-09-22T19:44:44.000Z,99072
2022-09-22T19:46:51.000Z,99072
2022-09-22T19:48:17.000Z,99068
2022-09-22T19:50:23.000Z,99069
2022-09-22T19:51:50.000Z,99069
2022-09-22T19:53:56.000Z,99065
2022-09-22T19:55:22.000Z,99063
2022-09-22T19:57:28.000Z,99067
2022-09-22T19:58:55.000Z,99062
2022-09-22T20:01:01.000Z,99065
2022-09-22T20:02:27.000Z,99064
2022-09-22T20:04:34.000Z,99066
2022-09-22T20:06:00.000Z,99061
2022-09-22T20:08:06.000Z,99064
2022-09-22T20:09:33.000Z,99065
2022-09-22T20:11:39.000Z,99067
2022-09-22T20:14:30.000Z,99064
2022-09-22T20:15:56.000Z,99062
2022-09-22T20:18:02.000Z,99064
2022-09-22T20:19:29.000Z,99063
2022-09-22T20:21:35.000Z,99062
2022-09-22T20:23:02.000Z,99061
2022-09-22T20:25:08.000Z,99058
2022-09-22T20:26:34.000Z,99063
2022-09-22T20:28:40.000Z,99060
2022-09-22T20:30:07.000Z,99062
2022-09-22T20:32:13.000Z,99058
2022-09-22T20:33:39.000Z,99061
2022-09-22T20:35:46.000Z,99059
2022-09-22T20:37:12.000Z,99060
2022-09-22T20:39:18.000Z,99059
2022-09-22T20:40:45.000Z,99060
2022-09-22T20:42:51.000Z,99058
2022-09-22T20:44:17.000Z,99058
2022-09-22T20:46:24.000Z,99059
2022-09-22T20:47:50.000Z,99058
2022-09-22T20:49:56.000Z,99055
2022-09-22T20:52:48.000Z,99058
2022-09-22T20:54:14.000Z,99057
2022-09-22T20:56:20.000Z,99059
2022-09-22T20:57:47.000Z,99053
2022-09-22T20:59:53.000Z,99053
2022-09-22T21:03:25.000Z,99048
2022-09-22T21:04:57.000Z,99052
2022-09-22T21:07:03.000Z,99045
2022-09-22T21:08:29.000Z,99047
2022-09-22T21:10:36.000Z,99048
2022-09-22T21:12:02.000Z,99048
2022-09-22T21:14:08.000Z,99046
2022-09-22T21:15:35.000Z,99043
2022-09-22T21:17:41.000Z,99041
2022-09-22T21:19:10.000Z,99047
2022-09-22T21:21:16.000Z,99046
2022-09-22T21:22:43.000Z,99043
2022-09-22T21:24:49.000Z,99046
2022-09-22T21:26:15.000Z,99043
2022-09-22T21:28:21.000Z,99045
2022-09-22T21:31:12.000Z,99048
2022-09-22T21:32:39.000Z,99044
2022-09-22T21:34:45.000Z,99045
2022-09-22T21:36:12.000Z,99042
2022-09-22T21:38:18.000Z,99043
2022-09-22T21:39:44.000Z,99039
2022-09-22T21:41:50.000Z,99037
2022-09-22T21:43:17.000Z,99035
2022-09-22T21:45:23.000Z,99035
2022-09-22T21:46:49.000Z,99033
2022-09-22T21:48:55.000Z,99031
2022-09-22T21:50:22.000Z,99030
2022-09-22T21:52:28.000Z,99027
2022-09-22T21:53:55.000Z,99027
2022-09-22T21:56:01.000Z,99025
2022-09-22T21:57:27.000Z,99023
2022-09-22T21:59:33.000Z,99019
2022-09-22T22:01:00.000Z,99022
2022-09-22T22:03:06.000Z,99020
2022-09-22T22:04:33.000Z,99019
2022-09-22T22:06:39.000Z,99015
2022-09-22T22:09:30.000Z,99015
2022-09-22T22:10:56.000Z,99013
2022-09-22T22:13:02.000Z,99011
2022-09-22T22:14:29.000Z,99014
2022-09-22T22:16:35.000Z,99018
2022-09-22T22:18:01.000Z,99013
2022-09-22T22:20:07.000Z,99014
2022-09-22T22:21:34.000Z,99015
2022-09-22T22:23:40.000Z,99014
2022-09-22T22:25:06.000Z,99015
2022-09-22T22:27:13.000Z,99014
2022-09-22T22:28:39.000Z,99011
2022-09-22T22:30:45.000Z,99013
2022-09-22T22:32:12.000Z,99012
2022-09-22T22:34:18.000Z,99014
2022-09-22T22:35:44.000Z,99014
2022-09-22T22:37:50.000Z,99015
2022-09-22T22:39:17.000Z,99014
2022-09-22T22:41:23.000Z,99009
2022-09-22T22:42:50.000Z,99009
2022-09-22T22:44:56.000Z,99008
2022-09-22T22:47:47.000Z,99008
2022-09-22T22:49:13.000Z,99006
2022-09-22T22:51:19.000Z,99005
2022-09-22T22:52:46.000Z,99003
2022-09-22T22:54:52.000Z,99004
2022-09-22T22:56:19.000Z,99003
2022-09-22T22:58:25.000Z,99003
2022-09-22T22:59:51.000Z,99005
2022-09-22T23:01:57.000Z,99003
2022-09-22T23:03:24.000Z,99004
2022-09-22T23:05:30.000Z,99007
2022-09-22T23:06:57.000Z,99005
2022-09-22T23:09:03.000Z,99006
2022-09-22T23:10:29.000Z,99000
2022-09-22T23:12:36.000Z,99002
2022-09-22T23:14:02.000Z,99005
2022-09-22T23:16:08.000Z,99001
2022-09-22T23:17:35.000Z,98999
2022-09-22T23:19:41.000Z,98999
2022-09-22T23:21:07.000Z,98996
2022-09-22T23:23:14.000Z,98993
2022-09-22T23:26:04.000Z,98999
2022-09-22T23:27:31.000Z,98995
2022-09-22T23:29:37.000Z,98993
2022-09-22T23:31:04.000Z,98994
2022-09-22T23:33:10.000Z,98996
2022-09-22T23:34:36.000Z,98996
2022-09-22T23:36:42.000Z,98991